createdAt,value
2019-01-19T00:00:05.509Z,980.00
2019-01-19T00:01:04.892Z,980.14
2019-01-19T00:02:05.180Z,980.24
2019-01-19T00:03:05.480Z,980.14
2019-01-19T00:04:05.682Z,980.05
2019-01-19T00:05:10.954Z,979.92
2019-01-19T00:06:04.642Z,980.03
2019-01-19T00:07:05.067Z,980.16
2019-01-19T00:08:05.440Z,980.08
2019-01-19T00:09:04.637Z,980.14
2019-01-19T00:10:04.772Z,979.92
2019-01-19T00:11:05.048Z,980.03
2019-01-19T00:12:05.204Z,979.97
2019-01-19T00:13:04.837Z,979.86
2019-01-19T00:14:05.271Z,980.14
2019-01-19T00:15:05.644Z,980.11
2019-01-19T00:16:04.922Z,979.92
2019-01-19T00:17:05.651Z,979.89
2019-01-19T00:18:05.074Z,979.97
2019-01-19T00:19:05.718Z,979.92
2019-01-19T00:20:04.805Z,979.86
2019-01-19T00:21:05.592Z,979.84
2019-01-19T00:22:04.860Z,979.86
2019-01-19T00:23:05.011Z,979.82
2019-01-19T00:24:05.311Z,980.03
2019-01-19T00:25:04.980Z,979.97
2019-01-19T00:26:04.834Z,979.92
2019-01-19T00:27:05.347Z,979.92
2019-01-19T00:28:04.843Z,979.94
2019-01-19T00:29:05.826Z,979.82
2019-01-19T00:30:05.010Z,979.89
2019-01-19T00:31:05.239Z,979.85
2019-01-19T00:32:04.887Z,979.95
2019-01-19T00:33:05.126Z,980.03
2019-01-19T00:34:04.904Z,979.77
2019-01-19T00:35:05.608Z,979.92
2019-01-19T00:36:05.715Z,979.92
2019-01-19T00:37:04.687Z,979.92
2019-01-19T00:38:05.437Z,979.95
2019-01-19T00:39:05.272Z,980.00
2019-01-19T00:40:05.658Z,979.87
2019-01-19T00:41:05.543Z,979.79
2019-01-19T00:42:04.887Z,979.82
2019-01-19T00:43:05.315Z,979.79
2019-01-19T00:44:05.772Z,980.00
2019-01-19T00:45:05.090Z,979.85
2019-01-19T00:46:05.611Z,979.89
2019-01-19T00:47:05.309Z,980.00
2019-01-19T00:48:05.227Z,980.03
2019-01-19T00:49:05.573Z,979.98
2019-01-19T00:50:04.769Z,979.87
2019-01-19T00:51:05.124Z,979.85
2019-01-19T00:52:05.298Z,979.98
2019-01-19T00:53:04.809Z,979.82
2019-01-19T00:54:04.656Z,979.85
2019-01-19T00:55:05.010Z,979.85
2019-01-19T00:56:05.458Z,979.85
2019-01-19T00:57:04.817Z,979.90
2019-01-19T00:58:04.898Z,979.87
2019-01-19T00:59:05.001Z,979.77
2019-01-19T01:00:05.515Z,979.90
2019-01-19T01:01:05.786Z,979.90
2019-01-19T01:02:04.816Z,979.85
2019-01-19T01:03:05.033Z,979.85
2019-01-19T01:04:10.312Z,979.90
2019-01-19T01:05:04.901Z,979.90
2019-01-19T01:06:05.174Z,979.90
2019-01-19T01:07:05.302Z,979.95
2019-01-19T01:08:04.603Z,979.90
2019-01-19T01:09:05.543Z,980.01
2019-01-19T01:10:04.854Z,980.01
2019-01-19T01:11:04.914Z,980.01
2019-01-19T01:12:04.917Z,979.86
2019-01-19T01:13:04.904Z,979.87
2019-01-19T01:14:05.359Z,979.87
2019-01-19T01:15:04.894Z,979.80
2019-01-19T01:16:05.156Z,979.98
2019-01-19T01:17:05.482Z,979.87
2019-01-19T01:18:05.126Z,979.96
2019-01-19T01:19:05.573Z,979.98
2019-01-19T01:20:05.149Z,979.77
2019-01-19T01:21:05.442Z,979.86
2019-01-19T01:22:05.031Z,979.86
2019-01-19T01:23:05.025Z,979.90
2019-01-19T01:24:04.715Z,979.93
2019-01-19T01:25:05.530Z,979.86
2019-01-19T01:26:05.330Z,979.87
2019-01-19T01:27:05.602Z,979.83
2019-01-19T01:28:05.140Z,979.86
2019-01-19T01:29:05.266Z,979.80
2019-01-19T01:30:04.748Z,979.90
2019-01-19T01:31:05.459Z,979.75
2019-01-19T01:32:04.702Z,979.75
2019-01-19T01:33:05.433Z,979.96
2019-01-19T01:34:05.440Z,979.83
2019-01-19T01:35:05.619Z,980.01
2019-01-19T01:36:05.274Z,979.77
2019-01-19T01:37:05.670Z,979.87
2019-01-19T01:38:10.167Z,979.93
2019-01-19T01:39:04.760Z,979.87
2019-01-19T01:40:05.042Z,979.77
2019-01-19T01:41:05.606Z,979.86
2019-01-19T01:42:05.041Z,979.87
2019-01-19T01:43:05.227Z,979.83
2019-01-19T01:44:04.622Z,979.69
2019-01-19T01:45:05.062Z,979.93
2019-01-19T01:46:05.380Z,979.86
2019-01-19T01:47:04.948Z,979.87
2019-01-19T01:48:04.890Z,979.87
2019-01-19T01:49:04.782Z,979.75
2019-01-19T01:50:05.719Z,979.80
2019-01-19T01:51:04.947Z,979.77
2019-01-19T01:52:04.899Z,979.69
2019-01-19T01:53:04.726Z,979.80
2019-01-19T01:54:04.847Z,979.86
2019-01-19T01:55:05.353Z,979.69
2019-01-19T01:56:04.974Z,979.72
2019-01-19T01:57:04.699Z,979.67
2019-01-19T01:58:05.150Z,979.72
2019-01-19T01:59:05.451Z,979.72
2019-01-19T02:00:04.869Z,979.72
2019-01-19T02:01:05.005Z,979.70
2019-01-19T02:02:05.726Z,979.78
2019-01-19T02:03:04.765Z,979.56
2019-01-19T02:04:04.896Z,979.56
2019-01-19T02:05:04.717Z,979.59
2019-01-19T02:06:05.426Z,979.56
2019-01-19T02:07:04.589Z,979.53
2019-01-19T02:08:05.456Z,979.56
2019-01-19T02:09:05.054Z,979.67
2019-01-19T02:10:04.871Z,979.56
2019-01-19T02:11:05.078Z,979.61
2019-01-19T02:12:05.760Z,979.62
2019-01-19T02:13:05.285Z,979.61
2019-01-19T02:14:05.830Z,979.59
2019-01-19T02:15:05.370Z,979.51
2019-01-19T02:16:05.246Z,979.61
2019-01-19T02:17:05.679Z,979.53
2019-01-19T02:18:05.154Z,979.59
2019-01-19T02:19:05.647Z,979.53
2019-01-19T02:20:05.050Z,979.62
2019-01-19T02:21:05.714Z,979.75
2019-01-19T02:22:04.689Z,979.53
2019-01-19T02:23:05.094Z,979.51
2019-01-19T02:24:05.726Z,979.64
2019-01-19T02:25:05.292Z,979.62
2019-01-19T02:26:05.682Z,979.62
2019-01-19T02:27:05.170Z,979.51
2019-01-19T02:28:05.378Z,979.48
2019-01-19T02:29:10.663Z,979.53
2019-01-19T02:30:05.455Z,979.53
2019-01-19T02:31:04.633Z,979.59
2019-01-19T02:32:05.629Z,979.45
2019-01-19T02:33:05.429Z,979.59
2019-01-19T02:34:05.507Z,979.34
2019-01-19T02:35:04.731Z,979.45
2019-01-19T02:36:05.445Z,979.53
2019-01-19T02:37:05.141Z,979.34
2019-01-19T02:38:04.924Z,979.51
2019-01-19T02:39:05.443Z,979.56
2019-01-19T02:40:05.012Z,979.40
2019-01-19T02:41:04.911Z,979.51
2019-01-19T02:42:05.023Z,979.48
2019-01-19T02:43:05.020Z,979.59
2019-01-19T02:44:05.131Z,979.40
2019-01-19T02:45:05.254Z,979.45
2019-01-19T02:46:04.734Z,979.45
2019-01-19T02:47:05.522Z,979.45
2019-01-19T02:48:05.665Z,979.51
2019-01-19T02:49:09.934Z,979.51
2019-01-19T02:50:05.495Z,979.59
2019-01-19T02:51:05.699Z,979.62
2019-01-19T02:52:04.883Z,979.54
2019-01-19T02:53:05.287Z,979.51
2019-01-19T02:54:05.460Z,979.68
2019-01-19T02:55:06.639Z,979.43
2019-01-19T02:56:05.440Z,979.51
2019-01-19T02:57:05.726Z,979.54
2019-01-19T02:58:05.560Z,979.57
2019-01-19T02:59:04.946Z,979.43
2019-01-19T03:00:05.212Z,979.48
2019-01-19T03:01:05.337Z,979.38
2019-01-19T03:02:04.706Z,979.35
2019-01-19T03:03:04.830Z,979.40
2019-01-19T03:04:05.578Z,979.32
2019-01-19T03:05:04.949Z,979.54
2019-01-19T03:06:05.386Z,979.29
2019-01-19T03:07:05.277Z,979.49
2019-01-19T03:08:05.435Z,979.38
2019-01-19T03:09:05.510Z,979.51
2019-01-19T03:10:05.339Z,979.51
2019-01-19T03:11:05.719Z,979.30
2019-01-19T03:12:05.224Z,979.46
2019-01-19T03:13:05.735Z,979.46
2019-01-19T03:14:04.937Z,979.51
2019-01-19T03:15:05.087Z,979.40
2019-01-19T03:16:05.635Z,979.35
2019-01-19T03:17:05.399Z,979.43
2019-01-19T03:18:05.107Z,979.43
2019-01-19T03:19:05.472Z,979.38
2019-01-19T03:20:04.796Z,979.51
2019-01-19T03:21:05.652Z,979.35
2019-01-19T03:22:04.588Z,979.32
2019-01-19T03:23:04.938Z,979.40
2019-01-19T03:24:04.855Z,979.38
2019-01-19T03:25:05.013Z,979.35
2019-01-19T03:26:05.268Z,979.32
2019-01-19T03:27:05.067Z,979.27
2019-01-19T03:28:04.645Z,979.32
2019-01-19T03:29:10.008Z,979.32
2019-01-19T03:30:05.573Z,979.35
2019-01-19T03:31:04.913Z,979.35
2019-01-19T03:32:05.354Z,979.30
2019-01-19T03:33:05.421Z,979.30
2019-01-19T03:34:04.706Z,979.52
2019-01-19T03:35:05.429Z,979.52
2019-01-19T03:36:05.303Z,979.36
2019-01-19T03:37:04.549Z,979.30
2019-01-19T03:38:04.880Z,979.22
2019-01-19T03:39:05.032Z,979.44
2019-01-19T03:40:05.081Z,979.36
2019-01-19T03:41:05.556Z,979.22
2019-01-19T03:42:05.166Z,979.30
2019-01-19T03:43:05.294Z,979.25
2019-01-19T03:44:04.660Z,979.36
2019-01-19T03:45:05.292Z,979.28
2019-01-19T03:46:05.680Z,979.30
2019-01-19T03:47:05.066Z,979.36
2019-01-19T03:48:05.600Z,979.36
2019-01-19T03:49:04.654Z,979.14
2019-01-19T03:50:05.186Z,979.22
2019-01-19T03:51:04.638Z,979.41
2019-01-19T03:52:05.274Z,979.30
2019-01-19T03:53:05.322Z,979.30
2019-01-19T03:54:05.191Z,979.30
2019-01-19T03:55:05.293Z,979.17
2019-01-19T03:56:04.800Z,979.28
2019-01-19T03:57:04.949Z,979.22
2019-01-19T03:58:05.722Z,979.28
2019-01-19T03:59:04.861Z,979.36
2019-01-19T04:00:04.953Z,979.25
2019-01-19T04:01:05.602Z,979.25
2019-01-19T04:02:05.178Z,979.19
2019-01-19T04:03:05.666Z,979.33
2019-01-19T04:04:05.274Z,979.31
2019-01-19T04:05:05.332Z,979.14
2019-01-19T04:06:13.134Z,979.17
2019-01-19T04:07:04.954Z,979.25
2019-01-19T04:08:04.828Z,979.25
2019-01-19T04:09:05.328Z,979.28
2019-01-19T04:10:05.228Z,979.20
2019-01-19T04:11:05.520Z,979.22
2019-01-19T04:12:05.546Z,979.17
2019-01-19T04:13:04.837Z,979.14
2019-01-19T04:14:05.155Z,979.14
2019-01-19T04:15:04.681Z,979.20
2019-01-19T04:16:05.524Z,979.06
2019-01-19T04:17:05.209Z,979.20
2019-01-19T04:18:05.121Z,979.28
2019-01-19T04:19:05.306Z,979.09
2019-01-19T04:20:04.876Z,979.14
2019-01-19T04:21:04.676Z,979.17
2019-01-19T04:22:04.848Z,979.06
2019-01-19T04:23:05.017Z,979.23
2019-01-19T04:24:05.488Z,979.06
2019-01-19T04:25:04.975Z,979.20
2019-01-19T04:26:05.223Z,979.36
2019-01-19T04:27:04.833Z,979.17
2019-01-19T04:28:04.715Z,979.20
2019-01-19T04:29:09.680Z,979.17
2019-01-19T04:30:05.372Z,979.04
2019-01-19T04:31:04.747Z,979.06
2019-01-19T04:32:04.990Z,979.09
2019-01-19T04:33:05.051Z,979.20
2019-01-19T04:34:04.583Z,979.01
2019-01-19T04:35:04.882Z,979.12
2019-01-19T04:36:04.990Z,979.04
2019-01-19T04:37:04.718Z,979.26
2019-01-19T04:38:05.120Z,979.26
2019-01-19T04:39:05.509Z,979.20
2019-01-19T04:40:05.299Z,979.04
2019-01-19T04:41:04.673Z,979.07
2019-01-19T04:42:05.427Z,979.12
2019-01-19T04:43:05.200Z,979.01
2019-01-19T04:44:05.604Z,979.17
2019-01-19T04:45:04.734Z,979.04
2019-01-19T04:46:05.145Z,979.01
2019-01-19T04:47:05.518Z,979.01
2019-01-19T04:48:05.555Z,979.15
2019-01-19T04:49:09.901Z,978.90
2019-01-19T04:50:05.659Z,979.12
2019-01-19T04:51:05.710Z,979.17
2019-01-19T04:52:05.391Z,979.01
2019-01-19T04:53:05.844Z,979.09
2019-01-19T04:54:04.945Z,978.96
2019-01-19T04:55:05.157Z,979.09
2019-01-19T04:56:05.014Z,979.07
2019-01-19T04:57:04.592Z,979.20
2019-01-19T04:58:04.971Z,979.12
2019-01-19T04:59:05.328Z,979.12
2019-01-19T05:00:05.731Z,979.09
2019-01-19T05:01:04.792Z,979.15
2019-01-19T05:02:05.340Z,979.07
2019-01-19T05:03:05.162Z,979.12
2019-01-19T05:04:05.551Z,979.04
2019-01-19T05:05:04.844Z,979.01
2019-01-19T05:06:12.911Z,979.01
2019-01-19T05:07:04.804Z,978.91
2019-01-19T05:08:04.793Z,978.96
2019-01-19T05:09:05.638Z,979.02
2019-01-19T05:10:05.057Z,979.04
2019-01-19T05:11:05.627Z,978.94
2019-01-19T05:12:04.649Z,979.13
2019-01-19T05:13:04.855Z,978.99
2019-01-19T05:14:05.128Z,978.99
2019-01-19T05:15:05.172Z,978.96
2019-01-19T05:16:05.570Z,978.94
2019-01-19T05:17:05.056Z,978.85
2019-01-19T05:18:04.886Z,979.04
2019-01-19T05:19:05.396Z,978.88
2019-01-19T05:20:04.883Z,979.07
2019-01-19T05:21:05.453Z,978.94
2019-01-19T05:22:04.867Z,978.88
2019-01-19T05:23:05.205Z,978.94
2019-01-19T05:24:04.656Z,978.96
2019-01-19T05:25:05.176Z,978.99
2019-01-19T05:26:04.977Z,978.99
2019-01-19T05:27:05.646Z,978.94
2019-01-19T05:28:05.487Z,978.96
2019-01-19T05:29:10.270Z,979.07
2019-01-19T05:30:04.929Z,978.94
2019-01-19T05:31:05.550Z,979.10
2019-01-19T05:32:05.593Z,979.13
2019-01-19T05:33:05.219Z,979.05
2019-01-19T05:34:05.501Z,978.94
2019-01-19T05:35:05.816Z,978.99
2019-01-19T05:36:05.239Z,979.10
2019-01-19T05:37:05.625Z,979.05
2019-01-19T05:38:05.240Z,979.21
2019-01-19T05:39:05.162Z,979.10
2019-01-19T05:40:04.983Z,978.91
2019-01-19T05:41:05.508Z,979.05
2019-01-19T05:42:05.011Z,978.94
2019-01-19T05:43:05.318Z,979.05
2019-01-19T05:44:04.689Z,979.07
2019-01-19T05:45:05.090Z,979.07
2019-01-19T05:46:04.879Z,979.02
2019-01-19T05:47:04.601Z,978.99
2019-01-19T05:48:04.738Z,979.08
2019-01-19T05:49:04.748Z,979.16
2019-01-19T05:50:05.135Z,979.10
2019-01-19T05:51:04.512Z,979.16
2019-01-19T05:52:04.965Z,978.97
2019-01-19T05:53:05.263Z,979.08
2019-01-19T05:54:10.669Z,979.08
2019-01-19T05:55:05.180Z,979.10
2019-01-19T05:56:04.811Z,978.99
2019-01-19T05:57:05.060Z,979.10
2019-01-19T05:58:05.088Z,979.02
2019-01-19T05:59:05.221Z,979.00
2019-01-19T06:00:04.577Z,979.00
2019-01-19T06:01:04.857Z,978.94
2019-01-19T06:02:04.977Z,979.08
2019-01-19T06:03:05.197Z,979.02
2019-01-19T06:04:05.610Z,979.13
2019-01-19T06:05:04.753Z,979.00
2019-01-19T06:06:05.333Z,979.08
2019-01-19T06:07:04.613Z,979.11
2019-01-19T06:08:04.857Z,979.03
2019-01-19T06:09:04.854Z,979.14
2019-01-19T06:10:04.986Z,978.94
2019-01-19T06:11:05.553Z,979.11
2019-01-19T06:12:05.005Z,979.08
2019-01-19T06:13:04.869Z,978.97
2019-01-19T06:14:04.823Z,979.14
2019-01-19T06:15:05.008Z,978.95
2019-01-19T06:16:05.235Z,979.06
2019-01-19T06:17:04.897Z,979.17
2019-01-19T06:18:04.908Z,978.97
2019-01-19T06:19:04.708Z,979.08
2019-01-19T06:20:04.783Z,979.00
2019-01-19T06:21:05.124Z,979.09
2019-01-19T06:22:05.285Z,979.03
2019-01-19T06:23:04.840Z,978.98
2019-01-19T06:24:05.367Z,978.98
2019-01-19T06:25:05.201Z,979.06
2019-01-19T06:26:05.380Z,978.90
2019-01-19T06:27:05.614Z,978.98
2019-01-19T06:28:05.264Z,979.09
2019-01-19T06:29:10.526Z,978.95
2019-01-19T06:30:05.045Z,979.01
2019-01-19T06:31:05.109Z,979.14
2019-01-19T06:32:04.852Z,978.93
2019-01-19T06:33:05.527Z,979.04
2019-01-19T06:34:04.652Z,979.04
2019-01-19T06:35:05.466Z,979.01
2019-01-19T06:36:05.865Z,979.04
2019-01-19T06:37:04.860Z,978.93
2019-01-19T06:38:05.668Z,978.90
2019-01-19T06:39:05.390Z,978.76
2019-01-19T06:40:05.173Z,978.90
2019-01-19T06:41:05.691Z,979.12
2019-01-19T06:42:05.147Z,978.85
2019-01-19T06:43:05.716Z,978.96
2019-01-19T06:44:05.156Z,978.96
2019-01-19T06:45:05.426Z,979.04
2019-01-19T06:46:04.643Z,978.99
2019-01-19T06:47:04.828Z,978.93
2019-01-19T06:48:05.351Z,978.93
2019-01-19T06:49:10.653Z,978.85
2019-01-19T06:50:05.271Z,978.91
2019-01-19T06:51:05.621Z,979.01
2019-01-19T06:52:05.705Z,979.01
2019-01-19T06:53:05.027Z,978.91
2019-01-19T06:54:05.545Z,979.04
2019-01-19T06:55:05.571Z,979.10
2019-01-19T06:56:04.864Z,978.96
2019-01-19T06:57:05.175Z,978.88
2019-01-19T06:58:05.339Z,978.99
2019-01-19T06:59:04.972Z,978.99
2019-01-19T07:00:05.173Z,978.96
2019-01-19T07:01:05.351Z,979.02
2019-01-19T07:02:05.858Z,978.94
2019-01-19T07:03:04.837Z,979.07
2019-01-19T07:04:05.198Z,979.05
2019-01-19T07:05:05.295Z,979.07
2019-01-19T07:06:05.410Z,979.13
2019-01-19T07:07:05.138Z,978.99
2019-01-19T07:08:05.296Z,979.10
2019-01-19T07:09:04.686Z,978.99
2019-01-19T07:10:05.280Z,979.02
2019-01-19T07:11:05.133Z,979.10
2019-01-19T07:12:04.638Z,979.02
2019-01-19T07:13:05.012Z,979.16
2019-01-19T07:14:05.324Z,979.05
2019-01-19T07:15:05.552Z,979.07
2019-01-19T07:16:04.724Z,978.94
2019-01-19T07:17:04.946Z,979.18
2019-01-19T07:18:05.052Z,979.10
2019-01-19T07:19:05.783Z,978.99
2019-01-19T07:20:05.522Z,978.99
2019-01-19T07:21:05.668Z,979.05
2019-01-19T07:22:04.815Z,979.21
2019-01-19T07:23:05.664Z,979.10
2019-01-19T07:24:04.758Z,978.99
2019-01-19T07:25:04.984Z,979.13
2019-01-19T07:26:04.750Z,979.13
2019-01-19T07:27:05.545Z,978.99
2019-01-19T07:28:05.292Z,979.02
2019-01-19T07:29:09.591Z,979.10
2019-01-19T07:30:05.319Z,979.02
2019-01-19T07:31:04.901Z,979.02
2019-01-19T07:32:05.492Z,979.12
2019-01-19T07:33:05.330Z,979.04
2019-01-19T07:34:05.331Z,978.99
2019-01-19T07:35:05.738Z,978.99
2019-01-19T07:36:04.741Z,978.93
2019-01-19T07:37:10.229Z,979.04
2019-01-19T07:38:05.076Z,978.98
2019-01-19T07:39:05.229Z,979.07
2019-01-19T07:40:04.856Z,979.06
2019-01-19T07:41:05.399Z,978.87
2019-01-19T07:42:05.439Z,979.06
2019-01-19T07:43:05.732Z,979.12
2019-01-19T07:44:06.092Z,978.92
2019-01-19T07:45:04.878Z,979.09
2019-01-19T07:46:05.395Z,979.06
2019-01-19T07:47:05.489Z,979.06
2019-01-19T07:48:05.149Z,979.14
2019-01-19T07:49:10.228Z,978.97
2019-01-19T07:50:04.929Z,979.08
2019-01-19T07:51:05.422Z,979.11
2019-01-19T07:52:05.802Z,979.08
2019-01-19T07:53:04.814Z,979.00
2019-01-19T07:54:05.418Z,979.16
2019-01-19T07:55:04.580Z,979.00
2019-01-19T07:56:04.988Z,979.08
2019-01-19T07:57:05.514Z,978.91
2019-01-19T07:58:05.529Z,979.08
2019-01-19T07:59:05.006Z,979.16
2019-01-19T08:00:05.195Z,979.21
2019-01-19T08:01:05.396Z,978.94
2019-01-19T08:02:05.635Z,979.15
2019-01-19T08:03:05.193Z,979.07
2019-01-19T08:04:05.315Z,979.18
2019-01-19T08:05:05.041Z,979.18
2019-01-19T08:06:05.127Z,979.15
2019-01-19T08:07:05.428Z,979.18
2019-01-19T08:08:05.731Z,979.04
2019-01-19T08:09:05.194Z,979.04
2019-01-19T08:10:05.676Z,979.20
2019-01-19T08:11:05.080Z,979.09
2019-01-19T08:12:05.250Z,979.12
2019-01-19T08:13:04.753Z,979.06
2019-01-19T08:14:05.058Z,979.11
2019-01-19T08:15:05.099Z,979.00
2019-01-19T08:16:04.758Z,979.06
2019-01-19T08:17:05.361Z,978.92
2019-01-19T08:18:05.153Z,978.95
2019-01-19T08:19:05.552Z,978.86
2019-01-19T08:20:05.304Z,979.05
2019-01-19T08:21:05.022Z,979.08
2019-01-19T08:22:04.943Z,979.05
2019-01-19T08:23:05.427Z,979.10
2019-01-19T08:24:04.699Z,979.02
2019-01-19T08:25:04.739Z,978.91
2019-01-19T08:26:05.361Z,979.07
2019-01-19T08:27:04.882Z,979.04
2019-01-19T08:28:05.143Z,978.91
2019-01-19T08:29:10.410Z,978.96
2019-01-19T08:30:05.253Z,978.98
2019-01-19T08:31:05.320Z,979.07
2019-01-19T08:32:05.500Z,979.12
2019-01-19T08:33:05.726Z,979.01
2019-01-19T08:34:05.686Z,978.98
2019-01-19T08:35:04.819Z,978.93
2019-01-19T08:36:04.764Z,979.12
2019-01-19T08:37:04.836Z,978.98
2019-01-19T08:38:04.851Z,978.92
2019-01-19T08:39:05.498Z,978.95
2019-01-19T08:40:05.470Z,979.00
2019-01-19T08:41:04.933Z,979.06
2019-01-19T08:42:05.689Z,979.14
2019-01-19T08:43:04.824Z,979.05
2019-01-19T08:44:05.764Z,978.94
2019-01-19T08:45:05.243Z,978.91
2019-01-19T08:46:05.433Z,978.86
2019-01-19T08:47:04.991Z,978.88
2019-01-19T08:48:05.003Z,978.91
2019-01-19T08:49:05.008Z,979.02
2019-01-19T08:50:05.795Z,979.02
2019-01-19T08:51:05.295Z,979.15
2019-01-19T08:52:05.123Z,978.88
2019-01-19T08:53:05.367Z,978.96
2019-01-19T08:54:05.136Z,978.98
2019-01-19T08:55:05.384Z,978.85
2019-01-19T08:56:05.366Z,978.93
2019-01-19T08:57:05.112Z,978.93
2019-01-19T08:58:05.152Z,978.90
2019-01-19T08:59:04.887Z,978.84
2019-01-19T09:00:05.012Z,978.92
2019-01-19T09:01:05.406Z,978.92
2019-01-19T09:02:05.435Z,978.84
2019-01-19T09:03:04.787Z,978.92
2019-01-19T09:04:04.794Z,978.91
2019-01-19T09:05:05.115Z,978.97
2019-01-19T09:06:05.433Z,978.99
2019-01-19T09:07:04.893Z,978.97
2019-01-19T09:08:04.749Z,978.94
2019-01-19T09:09:05.378Z,978.83
2019-01-19T09:10:04.720Z,978.91
2019-01-19T09:11:04.768Z,979.01
2019-01-19T09:12:05.560Z,979.01
2019-01-19T09:13:04.755Z,979.07
2019-01-19T09:14:05.099Z,978.98
2019-01-19T09:15:05.340Z,979.01
2019-01-19T09:16:04.650Z,979.15
2019-01-19T09:17:04.854Z,978.95
2019-01-19T09:18:05.218Z,979.12
2019-01-19T09:19:05.604Z,979.11
2019-01-19T09:20:04.826Z,979.11
2019-01-19T09:21:05.071Z,979.03
2019-01-19T09:22:05.843Z,978.97
2019-01-19T09:23:05.341Z,979.00
2019-01-19T09:24:04.930Z,979.08
2019-01-19T09:25:05.182Z,979.05
2019-01-19T09:26:05.311Z,979.11
2019-01-19T09:27:05.583Z,979.16
2019-01-19T09:28:04.871Z,979.08
2019-01-19T09:29:09.545Z,978.99
2019-01-19T09:30:05.256Z,979.13
2019-01-19T09:31:05.412Z,979.04
2019-01-19T09:32:04.550Z,979.07
2019-01-19T09:33:04.898Z,979.02
2019-01-19T09:34:05.245Z,979.21
2019-01-19T09:35:05.485Z,979.12
2019-01-19T09:36:05.722Z,979.12
2019-01-19T09:37:05.026Z,979.17
2019-01-19T09:38:05.646Z,979.12
2019-01-19T09:39:05.682Z,979.12
2019-01-19T09:40:04.935Z,979.06
2019-01-19T09:41:05.465Z,979.00
2019-01-19T09:42:05.024Z,979.05
2019-01-19T09:43:05.018Z,979.08
2019-01-19T09:44:05.805Z,979.00
2019-01-19T09:45:04.975Z,979.08
2019-01-19T09:46:05.241Z,979.10
2019-01-19T09:47:05.606Z,979.05
2019-01-19T09:48:04.593Z,979.18
2019-01-19T09:49:05.470Z,978.93
2019-01-19T09:50:05.303Z,979.02
2019-01-19T09:51:04.868Z,978.96
2019-01-19T09:52:05.469Z,978.99
2019-01-19T09:53:10.799Z,979.07
2019-01-19T09:54:05.511Z,978.90
2019-01-19T09:55:05.843Z,978.98
2019-01-19T09:56:05.002Z,979.03
2019-01-19T09:57:05.386Z,978.98
2019-01-19T09:58:04.797Z,979.11
2019-01-19T09:59:04.829Z,979.06
2019-01-19T10:00:05.878Z,979.08
2019-01-19T10:01:04.729Z,979.08
2019-01-19T10:02:05.419Z,979.03
2019-01-19T10:03:05.592Z,979.00
2019-01-19T10:04:05.180Z,978.94
2019-01-19T10:05:05.190Z,979.08
2019-01-19T10:06:05.655Z,979.13
2019-01-19T10:07:04.819Z,979.07
2019-01-19T10:08:05.280Z,978.88
2019-01-19T10:09:06.119Z,978.99
2019-01-19T10:10:04.739Z,978.96
2019-01-19T10:11:05.034Z,978.96
2019-01-19T10:12:05.213Z,979.04
2019-01-19T10:13:05.645Z,978.95
2019-01-19T10:14:04.703Z,978.87
2019-01-19T10:15:05.573Z,978.76
2019-01-19T10:16:04.782Z,979.06
2019-01-19T10:17:04.757Z,978.81
2019-01-19T10:18:04.886Z,978.76
2019-01-19T10:19:05.358Z,978.92
2019-01-19T10:20:04.708Z,978.84
2019-01-19T10:21:05.109Z,978.97
2019-01-19T10:22:05.771Z,978.83
2019-01-19T10:23:05.224Z,978.94
2019-01-19T10:24:04.635Z,978.77
2019-01-19T10:25:05.013Z,978.94
2019-01-19T10:26:05.066Z,978.66
2019-01-19T10:27:05.409Z,978.96
2019-01-19T10:28:05.784Z,978.77
2019-01-19T10:29:09.804Z,978.60
2019-01-19T10:30:05.585Z,978.71
2019-01-19T10:31:04.765Z,978.85
2019-01-19T10:32:05.114Z,978.65
2019-01-19T10:33:05.543Z,978.87
2019-01-19T10:34:04.890Z,978.87
2019-01-19T10:35:04.629Z,978.87
2019-01-19T10:36:04.693Z,978.89
2019-01-19T10:37:05.185Z,978.78
2019-01-19T10:38:05.378Z,978.75
2019-01-19T10:39:05.570Z,978.81
2019-01-19T10:40:04.946Z,978.86
2019-01-19T10:41:05.027Z,978.66
2019-01-19T10:42:05.414Z,978.61
2019-01-19T10:43:04.863Z,978.58
2019-01-19T10:44:05.007Z,978.69
2019-01-19T10:45:05.247Z,978.82
2019-01-19T10:46:05.705Z,978.68
2019-01-19T10:47:05.387Z,978.71
2019-01-19T10:48:05.699Z,978.74
2019-01-19T10:49:04.939Z,978.74
2019-01-19T10:50:04.944Z,978.54
2019-01-19T10:51:05.063Z,978.65
2019-01-19T10:52:05.225Z,978.59
2019-01-19T10:53:04.922Z,978.59
2019-01-19T10:54:05.424Z,978.53
2019-01-19T10:55:04.845Z,978.64
2019-01-19T10:56:04.928Z,978.72
2019-01-19T10:57:05.196Z,978.64
2019-01-19T10:58:05.713Z,978.64
2019-01-19T10:59:05.167Z,978.50
2019-01-19T11:00:05.155Z,978.44
2019-01-19T11:01:05.532Z,978.44
2019-01-19T11:02:05.205Z,978.47
2019-01-19T11:03:05.625Z,978.49
2019-01-19T11:04:04.650Z,978.57
2019-01-19T11:05:04.847Z,978.54
2019-01-19T11:06:05.632Z,978.44
2019-01-19T11:07:04.872Z,978.41
2019-01-19T11:08:05.191Z,978.62
2019-01-19T11:09:05.612Z,978.48
2019-01-19T11:10:05.531Z,978.43
2019-01-19T11:11:05.268Z,978.53
2019-01-19T11:12:05.069Z,978.53
2019-01-19T11:13:05.391Z,978.58
2019-01-19T11:14:05.562Z,978.50
2019-01-19T11:15:05.498Z,978.52
2019-01-19T11:16:05.303Z,978.47
2019-01-19T11:17:05.636Z,978.39
2019-01-19T11:18:05.031Z,978.39
2019-01-19T11:19:05.468Z,978.36
2019-01-19T11:20:05.390Z,978.31
2019-01-19T11:21:05.577Z,978.41
2019-01-19T11:22:04.789Z,978.41
2019-01-19T11:23:04.711Z,978.30
2019-01-19T11:24:04.951Z,978.33
2019-01-19T11:25:05.354Z,978.45
2019-01-19T11:26:04.643Z,978.41
2019-01-19T11:27:04.834Z,978.21
2019-01-19T11:28:05.191Z,978.32
2019-01-19T11:29:10.763Z,978.38
2019-01-19T11:30:05.572Z,978.32
2019-01-19T11:31:05.578Z,978.29
2019-01-19T11:32:05.502Z,978.23
2019-01-19T11:33:05.065Z,978.43
2019-01-19T11:34:05.502Z,978.29
2019-01-19T11:35:05.620Z,978.31
2019-01-19T11:36:05.464Z,978.23
2019-01-19T11:37:04.646Z,978.40
2019-01-19T11:38:12.359Z,978.23
2019-01-19T11:39:05.084Z,978.28
2019-01-19T11:40:05.590Z,978.22
2019-01-19T11:41:04.654Z,978.39
2019-01-19T11:42:05.020Z,978.28
2019-01-19T11:43:05.205Z,978.19
2019-01-19T11:44:05.315Z,978.22
2019-01-19T11:45:05.048Z,978.25
2019-01-19T11:46:05.364Z,978.13
2019-01-19T11:47:05.381Z,978.24
2019-01-19T11:48:05.020Z,978.07
2019-01-19T11:49:05.389Z,978.13
2019-01-19T11:50:04.673Z,978.10
2019-01-19T11:51:04.981Z,977.99
2019-01-19T11:52:05.072Z,978.07
2019-01-19T11:53:05.583Z,978.13
2019-01-19T11:54:04.662Z,978.04
2019-01-19T11:55:04.835Z,978.07
2019-01-19T11:56:12.478Z,978.04
2019-01-19T11:57:05.522Z,978.15
2019-01-19T11:58:05.657Z,978.09
2019-01-19T11:59:04.937Z,977.92
2019-01-19T12:00:04.907Z,978.04
2019-01-19T12:01:05.157Z,978.23
2019-01-19T12:02:04.952Z,978.01
2019-01-19T12:03:05.868Z,978.03
2019-01-19T12:04:04.839Z,978.15
2019-01-19T12:05:04.985Z,978.06
2019-01-19T12:06:05.385Z,977.92
2019-01-19T12:07:05.607Z,978.00
2019-01-19T12:08:05.120Z,978.09
2019-01-19T12:09:05.184Z,978.11
2019-01-19T12:10:05.327Z,978.06
2019-01-19T12:11:05.441Z,978.03
2019-01-19T12:12:05.512Z,978.03
2019-01-19T12:13:04.853Z,977.89
2019-01-19T12:14:05.292Z,978.03
2019-01-19T12:15:05.687Z,977.91
2019-01-19T12:16:05.658Z,977.89
2019-01-19T12:17:05.465Z,978.00
2019-01-19T12:18:04.703Z,977.83
2019-01-19T12:19:05.268Z,977.94
2019-01-19T12:20:05.795Z,977.94
2019-01-19T12:21:04.977Z,978.08
2019-01-19T12:22:04.969Z,977.99
2019-01-19T12:23:05.730Z,977.99
2019-01-19T12:24:06.023Z,977.93
2019-01-19T12:25:04.811Z,978.02
2019-01-19T12:26:05.439Z,978.02
2019-01-19T12:27:05.656Z,977.99
2019-01-19T12:28:05.433Z,977.90